createdAt,value
2018-11-28T00:00:28.703Z,100968.55
2018-11-28T00:03:00.283Z,100972.13
2018-11-28T00:05:30.363Z,100971.87
2018-11-28T00:08:00.821Z,100964.73
2018-11-28T00:10:30.963Z,100967.83
2018-11-28T00:13:01.238Z,100966.91
2018-11-28T00:15:31.443Z,100967.95
2018-11-28T00:18:01.460Z,100964.39
2018-11-28T00:20:31.368Z,100961.05
2018-11-28T00:23:01.973Z,100956.08
2018-11-28T00:25:33.377Z,100955.82
2018-11-28T00:28:03.193Z,100955.81
2018-11-28T00:30:33.418Z,100960.81
2018-11-28T00:33:03.535Z,100959.37
2018-11-28T00:35:33.626Z,100968.98
2018-11-28T00:38:04.297Z,100972.43
2018-11-28T00:40:34.238Z,100970.91
2018-11-28T00:43:04.194Z,100953.35
2018-11-28T00:45:34.768Z,100957.41
2018-11-28T00:48:04.673Z,100952.39
2018-11-28T00:50:34.497Z,100944.16
2018-11-28T00:53:04.517Z,100950.97
2018-11-28T00:55:34.403Z,100959.94
2018-11-28T00:58:04.259Z,100951.45
2018-11-28T01:00:34.859Z,100953.23
2018-11-28T01:03:04.770Z,100956.45
2018-11-28T01:05:35.462Z,100953.77
2018-11-28T01:08:05.362Z,100953.66
2018-11-28T01:10:35.211Z,100960.06
2018-11-28T01:13:05.047Z,100961.38
2018-11-28T01:15:35.057Z,100954.35
2018-11-28T01:18:05.222Z,100952.70
2018-11-28T01:20:35.272Z,100956.91
2018-11-28T01:23:06.742Z,100954.94
2018-11-28T01:25:37.172Z,100951.53
2018-11-28T01:28:07.047Z,100956.38
2018-11-28T01:30:36.874Z,100954.25
2018-11-28T01:33:07.271Z,100946.27
2018-11-28T01:35:37.092Z,100951.16
2018-11-28T01:38:07.032Z,100949.33
2018-11-28T01:40:36.912Z,100949.02
2018-11-28T01:43:08.339Z,100949.73
2018-11-28T01:45:38.208Z,100950.08
2018-11-28T01:48:08.315Z,100944.84
2018-11-28T01:50:38.159Z,100943.41
2018-11-28T01:53:08.724Z,100951.55
2018-11-28T01:55:38.644Z,100948.27
2018-11-28T01:58:08.474Z,100947.07
2018-11-28T02:00:38.531Z,100942.80
2018-11-28T02:03:08.376Z,100936.73
2018-11-28T02:05:38.282Z,100940.90
2018-11-28T02:08:08.227Z,100939.34
2018-11-28T02:10:39.371Z,100939.47
2018-11-28T02:13:09.493Z,100940.42
2018-11-28T02:15:39.249Z,100935.42
2018-11-28T02:18:09.082Z,100924.06
2018-11-28T02:20:40.106Z,100930.20
2018-11-28T02:23:10.183Z,100925.81
2018-11-28T02:25:40.452Z,100927.73
2018-11-28T02:28:10.203Z,100921.91
2018-11-28T02:30:40.129Z,100919.32
2018-11-28T02:33:10.226Z,100924.55
2018-11-28T02:35:40.377Z,100933.20
2018-11-28T02:38:10.393Z,100929.16
2018-11-28T02:40:40.560Z,100928.91
2018-11-28T02:43:11.152Z,100929.03
2018-11-28T02:45:42.163Z,100939.12
2018-11-28T02:48:12.142Z,100938.98
2018-11-28T02:50:41.902Z,100933.64
2018-11-28T02:53:11.827Z,100931.89
2018-11-28T02:55:42.721Z,100933.64
2018-11-28T02:58:13.008Z,100933.99
2018-11-28T03:00:43.564Z,100934.12
2018-11-28T03:03:13.747Z,100929.98
2018-11-28T03:05:43.832Z,100929.64
2018-11-28T03:08:14.487Z,100929.03
2018-11-28T03:10:44.257Z,100924.16
2018-11-28T03:13:14.223Z,100914.33
2018-11-28T03:15:44.575Z,100915.37
2018-11-28T03:18:14.592Z,100915.51
2018-11-28T03:20:45.709Z,100906.97
2018-11-28T03:23:16.211Z,100912.80
2018-11-28T03:25:46.173Z,100910.16
2018-11-28T03:28:15.979Z,100915.86
2018-11-28T03:30:45.763Z,100914.45
2018-11-28T03:33:15.931Z,100919.42
2018-11-28T03:35:46.538Z,100924.16
2018-11-28T03:38:16.525Z,100916.69
2018-11-28T03:40:47.421Z,100924.16
2018-11-28T03:43:17.429Z,100922.63
2018-11-28T03:45:47.622Z,100926.77
2018-11-28T03:48:21.823Z,100925.59
2018-11-28T03:50:52.005Z,100937.91
2018-11-28T03:53:22.311Z,100931.29
2018-11-28T03:55:52.510Z,100934.24
2018-11-28T03:58:22.530Z,100937.33
2018-11-28T04:00:52.384Z,100930.69
2018-11-28T04:03:22.208Z,100921.33
2018-11-28T04:05:53.336Z,100919.64
2018-11-28T04:08:23.369Z,100912.64
2018-11-28T04:10:53.340Z,100918.72
2018-11-28T04:13:23.433Z,100916.46
2018-11-28T04:15:54.073Z,100920.02
2018-11-28T04:18:24.191Z,100908.38
2018-11-28T04:20:54.187Z,100905.55
2018-11-28T04:23:24.458Z,100907.45
2018-11-28T04:25:54.416Z,100898.55
2018-11-28T04:28:25.150Z,100898.67
2018-11-28T04:30:56.587Z,100901.50
2018-11-28T04:33:27.167Z,100902.23
2018-11-28T04:35:57.337Z,100902.58
2018-11-28T04:38:27.683Z,100905.67
2018-11-28T04:40:57.667Z,100915.63
2018-11-28T04:43:28.132Z,100905.79
2018-11-28T04:45:58.199Z,100905.53
2018-11-28T04:48:28.308Z,100903.05
2018-11-28T04:50:58.356Z,100902.09
2018-11-28T04:53:28.953Z,100907.22
2018-11-28T04:56:01.008Z,100901.51
2018-11-28T05:01:07.093Z,100904.73
2018-11-28T05:03:50.107Z,100908.96
2018-11-28T05:07:33.812Z,100908.16
2018-11-28T05:10:03.907Z,100903.37
2018-11-28T05:12:33.888Z,100908.34
2018-11-28T05:15:04.996Z,100915.11
2018-11-28T05:17:35.336Z,100913.69
2018-11-28T05:20:08.153Z,100918.27
2018-11-28T05:22:37.927Z,100910.91
2018-11-28T05:25:12.094Z,100913.89
2018-11-28T05:27:41.866Z,100908.82
2018-11-28T05:30:18.931Z,100901.73
2018-11-28T05:32:49.454Z,100902.35
2018-11-28T05:35:21.216Z,100905.50
2018-11-28T05:37:51.320Z,100904.66
2018-11-28T05:40:23.573Z,100901.89
2018-11-28T05:42:54.053Z,100909.42
2018-11-28T05:45:23.933Z,100904.70
2018-11-28T05:47:54.241Z,100906.96
2018-11-28T05:50:25.121Z,100909.47
2018-11-28T05:52:55.146Z,100907.53
2018-11-28T05:55:25.008Z,100914.63
2018-11-28T05:57:56.051Z,100919.03
2018-11-28T06:00:37.901Z,100907.41
2018-11-28T06:03:11.451Z,100912.89
2018-11-28T06:05:42.827Z,100911.95
2018-11-28T06:08:13.274Z,100903.77
2018-11-28T06:10:43.405Z,100904.34
2018-11-28T06:13:13.270Z,100908.17
2018-11-28T06:15:43.152Z,100912.30
2018-11-28T06:18:13.217Z,100914.35
2018-11-28T06:20:43.232Z,100910.87
2018-11-28T06:23:13.052Z,100909.59
2018-11-28T06:25:42.840Z,100912.65
2018-11-28T06:28:12.548Z,100919.29
2018-11-28T06:30:42.775Z,100910.23
2018-11-28T06:33:12.484Z,100914.17
2018-11-28T06:35:42.186Z,100908.13
2018-11-28T06:38:11.948Z,100909.41
2018-11-28T06:40:41.778Z,100910.12
2018-11-28T06:43:11.627Z,100904.16
2018-11-28T06:45:41.391Z,100906.22
2018-11-28T06:48:11.881Z,100910.70
2018-11-28T06:50:41.761Z,100914.73
2018-11-28T06:53:11.626Z,100917.84
2018-11-28T06:55:41.500Z,100913.61
2018-11-28T06:58:11.410Z,100916.16
2018-11-28T07:00:41.992Z,100922.80
2018-11-28T07:03:12.565Z,100922.75
2018-11-28T07:05:43.036Z,100917.89
2018-11-28T07:08:13.031Z,100924.66
2018-11-28T07:10:43.233Z,100923.75
2018-11-28T07:13:13.631Z,100920.11
2018-11-28T07:15:43.435Z,100934.34
2018-11-28T07:18:30.761Z,100945.46
2018-11-28T07:21:00.858Z,100948.20
2018-11-28T07:23:30.636Z,100938.42
2018-11-28T07:26:01.039Z,100951.05
2018-11-28T07:28:30.920Z,100948.50
2018-11-28T07:31:01.254Z,100958.92
2018-11-28T07:33:31.057Z,100949.59
2018-11-28T07:36:02.156Z,100950.02
2018-11-28T07:38:33.153Z,100938.87
2018-11-28T07:41:03.305Z,100947.12
2018-11-28T07:43:33.251Z,100945.17
2018-11-28T07:46:03.606Z,100947.31
2018-11-28T07:48:33.872Z,100945.88
2018-11-28T07:51:04.125Z,100938.20
2018-11-28T07:53:34.285Z,100938.37
2018-11-28T07:56:04.471Z,100942.20
2018-11-28T07:58:34.377Z,100937.22
2018-11-28T08:01:04.735Z,100939.09
2018-11-28T08:03:35.324Z,100934.67
2018-11-28T08:06:05.329Z,100933.56
2018-11-28T08:08:37.225Z,100946.44
2018-11-28T08:11:08.459Z,100954.12
2018-11-28T08:13:38.387Z,100952.44
2018-11-28T08:16:08.385Z,100950.52
2018-11-28T08:18:39.335Z,100942.25
2018-11-28T08:21:09.340Z,100937.12
2018-11-28T08:23:39.361Z,100939.09
2018-11-28T08:26:09.306Z,100939.84
2018-11-28T08:28:40.028Z,100932.35
2018-11-28T08:31:10.222Z,100922.61
2018-11-28T08:33:40.421Z,100921.94
2018-11-28T08:36:10.752Z,100921.75
2018-11-28T08:38:40.851Z,100924.02
2018-11-28T08:41:10.977Z,100921.28
2018-11-28T08:43:42.107Z,100929.48
2018-11-28T08:46:12.290Z,100920.86
2018-11-28T08:48:42.427Z,100924.86
2018-11-28T08:51:12.366Z,100931.31
2018-11-28T08:53:42.187Z,100920.16
2018-11-28T08:56:12.125Z,100928.80
2018-11-28T08:58:42.030Z,100927.62
2018-11-28T09:01:12.216Z,100917.55
2018-11-28T09:03:42.032Z,100923.12
2018-11-28T09:06:12.636Z,100929.77
2018-11-28T09:08:42.530Z,100930.53
2018-11-28T09:11:12.252Z,100928.16
2018-11-28T09:13:42.500Z,100926.20
2018-11-28T09:16:12.407Z,100927.41
2018-11-28T09:18:43.165Z,100922.16
2018-11-28T09:21:13.018Z,100918.80
2018-11-28T09:23:43.378Z,100914.64
2018-11-28T09:26:18.287Z,100917.94
2018-11-28T09:28:49.669Z,100913.20
2018-11-28T09:31:19.889Z,100908.77
2018-11-28T09:33:50.410Z,100899.52
2018-11-28T09:36:20.352Z,100902.41
2018-11-28T09:38:51.558Z,100899.82
2018-11-28T09:41:21.498Z,100903.20
2018-11-28T09:43:51.796Z,100898.05
2018-11-28T09:46:22.656Z,100898.34
2018-11-28T09:48:53.337Z,100891.69
2018-11-28T09:51:23.211Z,100898.19
2018-11-28T09:53:53.703Z,100901.77
2018-11-28T09:56:23.604Z,100894.68
2018-11-28T09:58:53.440Z,100890.66
2018-11-28T10:01:23.795Z,100890.16
2018-11-28T10:03:53.787Z,100888.19
2018-11-28T10:06:23.805Z,100871.20
2018-11-28T10:08:53.696Z,100898.34
2018-11-28T10:11:23.745Z,100889.98
2018-11-28T10:13:53.651Z,100886.29
2018-11-28T10:16:23.400Z,100878.30
2018-11-28T10:18:53.998Z,100883.01
2018-11-28T10:21:23.861Z,100890.34
2018-11-28T10:23:53.661Z,100887.42
2018-11-28T10:26:23.421Z,100874.81
2018-11-28T10:28:53.322Z,100880.80
2018-11-28T10:31:23.211Z,100883.81
2018-11-28T10:33:53.084Z,100879.04
2018-11-28T10:36:23.740Z,100876.16
2018-11-28T10:38:53.555Z,100886.92
2018-11-28T10:41:24.158Z,100882.83
2018-11-28T10:43:54.186Z,100887.09
2018-11-28T10:46:24.724Z,100881.91
2018-11-28T10:48:54.751Z,100879.42
2018-11-28T10:51:24.538Z,100869.72
2018-11-28T10:53:54.308Z,100864.23
2018-11-28T10:56:24.237Z,100868.75
2018-11-28T10:58:54.782Z,100875.72
2018-11-28T11:01:26.899Z,100870.23
2018-11-28T11:04:02.049Z,100871.42
2018-11-28T11:06:38.081Z,100868.45
2018-11-28T11:09:15.468Z,100874.41
2018-11-28T11:11:51.267Z,100876.39
2018-11-28T11:14:26.411Z,100864.36
2018-11-28T11:16:56.515Z,100860.21
2018-11-28T11:19:26.558Z,100859.30
2018-11-28T11:21:56.518Z,100848.21
2018-11-28T11:24:27.167Z,100855.34
2018-11-28T11:26:56.980Z,100844.13
2018-11-28T11:29:27.167Z,100855.94
2018-11-28T11:31:56.995Z,100856.99
2018-11-28T11:34:27.014Z,100851.38
2018-11-28T11:36:56.944Z,100844.30
2018-11-28T11:39:27.067Z,100850.06
2018-11-28T11:41:56.976Z,100846.60
2018-11-28T11:44:27.086Z,100847.73
2018-11-28T11:46:57.765Z,100835.55
2018-11-28T11:49:28.166Z,100837.69
2018-11-28T11:51:58.077Z,100833.22
2018-11-28T11:54:27.928Z,100834.06
2018-11-28T11:56:57.715Z,100836.03
2018-11-28T11:59:27.522Z,100831.09
2018-11-28T12:01:57.361Z,100834.04
2018-11-28T12:04:27.193Z,100830.45
2018-11-28T12:06:57.187Z,100834.21
2018-11-28T12:09:27.748Z,100826.47
2018-11-28T12:11:57.591Z,100831.09
2018-11-28T12:14:27.321Z,100833.06
2018-11-28T12:16:57.161Z,100825.81
2018-11-28T12:19:27.284Z,100827.95
2018-11-28T12:21:57.175Z,100820.86
2018-11-28T12:24:26.956Z,100822.85
2018-11-28T12:26:57.765Z,100816.73
2018-11-28T12:29:27.605Z,100818.20
2018-11-28T12:31:57.582Z,100817.56
2018-11-28T12:34:27.532Z,100805.02
2018-11-28T12:36:57.883Z,100810.30
2018-11-28T12:39:28.771Z,100814.09
2018-11-28T12:41:58.635Z,100810.30
2018-11-28T12:44:28.715Z,100807.16
2018-11-28T12:46:58.855Z,100808.64
2018-11-28T12:49:28.930Z,100805.69
2018-11-28T12:51:59.013Z,100807.16
2018-11-28T12:54:29.151Z,100802.05
2018-11-28T12:56:59.146Z,100804.69
2018-11-28T12:59:29.025Z,100809.33
2018-11-28T13:01:59.771Z,100803.05
2018-11-28T13:04:30.302Z,100804.36
2018-11-28T13:07:01.034Z,100803.87
2018-11-28T13:09:30.793Z,100810.31
2018-11-28T13:12:00.722Z,100805.19
2018-11-28T13:14:30.601Z,100806.18
2018-11-28T13:17:00.621Z,100805.68
2018-11-28T13:19:30.487Z,100794.59
2018-11-28T13:22:00.269Z,100795.92
2018-11-28T13:24:30.263Z,100797.39
2018-11-28T13:27:00.540Z,100797.23
2018-11-28T13:29:30.794Z,100785.85
2018-11-28T13:32:00.644Z,100787.66
2018-11-28T13:34:30.449Z,100788.66
2018-11-28T13:37:00.392Z,100787.17
2018-11-28T13:39:30.182Z,100787.18
2018-11-28T13:42:01.107Z,100778.59
2018-11-28T13:44:31.044Z,100787.01
2018-11-28T13:47:00.844Z,100775.30
2018-11-28T13:49:31.077Z,100775.96
2018-11-28T13:52:01.741Z,100767.72
2018-11-28T13:54:31.684Z,100775.97
2018-11-28T13:57:04.722Z,100776.96
2018-11-28T13:59:32.087Z,100771.01
2018-11-28T14:02:01.970Z,100766.58
2018-11-28T14:04:32.785Z,100760.14
2018-11-28T14:07:02.748Z,100759.47
2018-11-28T14:09:38.744Z,100758.98
2018-11-28T14:12:08.899Z,100759.16
2018-11-28T14:14:38.850Z,100758.83
2018-11-28T14:17:08.731Z,100758.50
2018-11-28T14:19:38.613Z,100757.32
2018-11-28T14:22:08.479Z,100755.53
2018-11-28T14:24:38.290Z,100752.38
2018-11-28T14:27:08.251Z,100749.91
2018-11-28T14:29:38.328Z,100747.78
2018-11-28T14:32:08.151Z,100749.92
2018-11-28T14:34:37.886Z,100745.94
2018-11-28T14:37:08.862Z,100738.37
2018-11-28T14:39:38.679Z,100735.91
2018-11-28T14:42:14.182Z,100746.14
2018-11-28T14:44:44.105Z,100750.58
2018-11-28T14:47:14.024Z,100741.00
2018-11-28T14:49:43.885Z,100742.67
2018-11-28T14:52:13.820Z,100735.91
2018-11-28T14:54:43.715Z,100737.20
2018-11-28T14:57:13.514Z,100736.89
2018-11-28T14:59:43.558Z,100746.63
2018-11-28T15:02:13.432Z,100744.15
2018-11-28T15:04:43.314Z,100736.41
2018-11-28T15:07:13.158Z,100729.48
2018-11-28T15:09:48.046Z,100724.03
2018-11-28T15:12:17.995Z,100719.91
2018-11-28T15:14:48.009Z,100709.36
2018-11-28T15:17:18.904Z,100709.05
2018-11-28T15:19:48.837Z,100720.24
2018-11-28T15:22:18.690Z,100714.63
2018-11-28T15:24:48.702Z,100721.56
2018-11-28T15:27:18.788Z,100714.79
2018-11-28T15:29:48.681Z,100711.01
2018-11-28T15:32:18.684Z,100700.13
2018-11-28T15:34:49.504Z,100710.18
2018-11-28T15:37:19.291Z,100706.88
2018-11-28T15:39:49.082Z,100704.73
2018-11-28T15:42:18.963Z,100706.55
2018-11-28T15:44:49.183Z,100712.32
2018-11-28T15:47:19.344Z,100703.43
2018-11-28T15:49:50.850Z,100699.14
2018-11-28T15:52:19.614Z,100700.78
2018-11-28T15:54:49.928Z,100710.70
2018-11-28T15:57:20.454Z,100701.61
2018-11-28T15:59:50.449Z,100699.45
2018-11-28T16:02:20.564Z,100698.49
2018-11-28T16:04:50.384Z,100699.47
2018-11-28T16:07:21.106Z,100693.05
2018-11-28T16:09:56.052Z,100694.19
2018-11-28T16:12:25.877Z,100688.59
2018-11-28T16:14:56.549Z,100689.75
2018-11-28T16:17:27.554Z,100690.91
2018-11-28T16:19:57.642Z,100686.62
2018-11-28T16:22:32.774Z,100677.72
2018-11-28T16:25:02.709Z,100667.48
2018-11-28T16:27:32.623Z,100667.48
2018-11-28T16:30:02.567Z,100655.62
2018-11-28T16:32:32.438Z,100653.66
2018-11-28T16:35:02.339Z,100643.93
2018-11-28T16:37:32.260Z,100648.03
2018-11-28T16:40:02.343Z,100640.30
2018-11-28T16:42:32.163Z,100627.61
2018-11-28T16:45:02.188Z,100622.66
2018-11-28T16:47:32.009Z,100632.88
2018-11-28T16:50:01.977Z,100633.20
2018-11-28T16:52:32.019Z,100634.98
2018-11-28T16:55:02.074Z,100637.80
2018-11-28T16:57:31.888Z,100625.94
2018-11-28T17:00:01.830Z,100629.42
2018-11-28T17:02:31.562Z,100643.08
2018-11-28T17:05:01.446Z,100646.39
2018-11-28T17:07:31.463Z,100648.20
2018-11-28T17:10:01.277Z,100652.98
2018-11-28T17:12:31.169Z,100654.48
2018-11-28T17:15:01.087Z,100651.52
2018-11-28T17:17:30.870Z,100655.80
2018-11-28T17:20:00.919Z,100661.23
2018-11-28T17:22:30.924Z,100654.14
2018-11-28T17:25:01.503Z,100641.95
2018-11-28T17:27:32.353Z,100638.17
2018-11-28T17:30:01.423Z,100642.95
2018-11-28T17:32:31.383Z,100634.88
2018-11-28T17:35:01.272Z,100638.33
2018-11-28T17:37:31.159Z,100639.82
2018-11-28T17:40:01.082Z,100640.79
2018-11-28T17:42:30.976Z,100644.42
2018-11-28T17:45:00.962Z,100642.95
2018-11-28T17:47:30.913Z,100637.33
2018-11-28T17:50:00.681Z,100640.32
2018-11-28T17:52:30.504Z,100634.70
2018-11-28T17:55:00.297Z,100638.16
2018-11-28T17:57:30.139Z,100639.47
2018-11-28T17:59:59.924Z,100632.88
2018-11-28T18:02:31.246Z,100644.08
2018-11-28T18:05:01.806Z,100648.70
2018-11-28T18:07:31.983Z,100644.25
2018-11-28T18:10:02.121Z,100643.11
2018-11-28T18:12:32.096Z,100639.80
2018-11-28T18:15:02.029Z,100634.20
2018-11-28T18:17:31.987Z,100636.83
2018-11-28T18:20:01.941Z,100627.78
2018-11-28T18:22:31.926Z,100629.07
2018-11-28T18:25:01.954Z,100632.53
2018-11-28T18:27:31.970Z,100623.65
2018-11-28T18:30:01.948Z,100621.83
2018-11-28T18:32:31.818Z,100622.97
2018-11-28T18:35:01.836Z,100619.34
2018-11-28T18:37:31.764Z,100622.16
2018-11-28T18:40:01.665Z,100627.61
2018-11-28T18:42:31.889Z,100622.97
2018-11-28T18:45:02.192Z,100620.66
2018-11-28T18:47:37.140Z,100612.78
2018-11-28T18:50:09.304Z,100624.44
2018-11-28T18:52:42.708Z,100621.46
2018-11-28T18:55:16.689Z,100623.29
2018-11-28T18:57:46.316Z,100624.79
2018-11-28T19:00:19.857Z,100622.11
2018-11-28T19:02:49.864Z,100619.66
2018-11-28T19:05:19.778Z,100634.66
2018-11-28T19:07:49.867Z,100629.39
2018-11-28T19:10:26.397Z,100630.70
2018-11-28T19:12:54.325Z,100628.56
2018-11-28T19:15:25.890Z,100634.52
2018-11-28T19:17:57.145Z,100632.70
2018-11-28T19:20:27.191Z,100632.70
2018-11-28T19:22:58.241Z,100619.69
2018-11-28T19:25:29.463Z,100628.45
2018-11-28T19:27:59.390Z,100621.83
2018-11-28T19:30:36.116Z,100623.82
2018-11-28T19:33:07.681Z,100620.36
2018-11-28T19:35:37.595Z,100619.07
2018-11-28T19:38:10.934Z,100611.81
2018-11-28T19:40:56.075Z,100616.91
2018-11-28T19:43:26.116Z,100613.59
2018-11-28T19:45:56.511Z,100612.63
2018-11-28T19:48:26.466Z,100610.47
2018-11-28T19:50:56.636Z,100617.73
2018-11-28T19:53:26.629Z,100616.26
2018-11-28T19:55:56.894Z,100613.28
2018-11-28T19:58:26.751Z,100608.99
2018-11-28T20:00:57.046Z,100618.88
2018-11-28T20:03:27.096Z,100615.41
2018-11-28T20:05:57.424Z,100615.77
2018-11-28T20:08:27.557Z,100614.92
2018-11-28T20:10:57.979Z,100610.99
2018-11-28T20:13:28.036Z,100601.27
2018-11-28T20:15:58.490Z,100604.08
2018-11-28T20:18:28.636Z,100606.04
2018-11-28T20:20:58.972Z,100604.22
2018-11-28T20:23:28.935Z,100596.17
2018-11-28T20:25:59.104Z,100591.19
2018-11-28T20:28:29.234Z,100596.64
2018-11-28T20:30:59.765Z,100598.77
2018-11-28T20:33:32.286Z,100590.05
2018-11-28T20:36:02.215Z,100598.09
2018-11-28T20:38:34.995Z,100604.69
2018-11-28T20:41:05.098Z,100600.27
2018-11-28T20:43:35.329Z,100586.27
2018-11-28T20:46:05.373Z,100590.54
2018-11-28T20:48:35.262Z,100590.86
2018-11-28T20:51:05.307Z,100584.91
2018-11-28T20:53:35.196Z,100570.27
2018-11-28T20:56:05.231Z,100566.77
2018-11-28T20:58:35.313Z,100561.53
2018-11-28T21:01:05.317Z,100570.44
2018-11-28T21:03:35.235Z,100592.00
2018-11-28T21:06:05.126Z,100592.64
2018-11-28T21:08:35.091Z,100601.55
2018-11-28T21:11:05.559Z,100592.17
2018-11-28T21:13:35.339Z,100592.17
2018-11-28T21:16:05.287Z,100584.09
2018-11-28T21:18:36.119Z,100575.36
2018-11-28T21:21:07.379Z,100575.86
2018-11-28T21:23:37.425Z,100577.44
2018-11-28T21:26:07.566Z,100568.08
2018-11-28T21:28:37.862Z,100562.13
2018-11-28T21:31:08.670Z,100566.90
2018-11-28T21:33:38.738Z,100561.17
2018-11-28T21:36:09.251Z,100557.34
2018-11-28T21:38:39.238Z,100556.16
2018-11-28T21:41:09.321Z,100556.64
2018-11-28T21:43:40.183Z,100554.02
2018-11-28T21:46:10.273Z,100551.05
2018-11-28T21:48:40.626Z,100557.95
2018-11-28T21:51:11.527Z,100556.00
2018-11-28T21:53:41.602Z,100561.43
2018-11-28T21:56:11.470Z,100559.09
2018-11-28T21:58:41.741Z,100556.97
2018-11-28T22:01:12.151Z,100557.27
2018-11-28T22:03:42.097Z,100547.28
2018-11-28T22:06:11.909Z,100548.68
2018-11-28T22:08:41.850Z,100554.52
2018-11-28T22:11:11.743Z,100550.38
2018-11-28T22:13:41.834Z,100545.59
2018-11-28T22:16:12.008Z,100547.73
2018-11-28T22:18:41.990Z,100544.09
2018-11-28T22:21:12.154Z,100543.89
2018-11-28T22:23:41.958Z,100533.83
2018-11-28T22:26:12.120Z,100531.22
2018-11-28T22:28:42.455Z,100526.56
2018-11-28T22:31:12.281Z,100526.43
2018-11-28T22:33:42.156Z,100522.67
2018-11-28T22:36:11.953Z,100521.66
2018-11-28T22:38:41.714Z,100520.52
2018-11-28T22:41:11.482Z,100532.25
2018-11-28T22:43:41.384Z,100530.14
2018-11-28T22:46:11.588Z,100530.88
2018-11-28T22:48:41.345Z,100523.67
2018-11-28T22:51:12.440Z,100528.51
2018-11-28T22:53:42.524Z,100527.31
2018-11-28T22:56:12.648Z,100532.91
2018-11-28T22:58:43.274Z,100517.26
2018-11-28T23:01:13.288Z,100511.80
2018-11-28T23:03:43.320Z,100506.68
2018-11-28T23:06:13.128Z,100512.77
2018-11-28T23:08:43.144Z,100514.41
2018-11-28T23:11:13.133Z,100510.16
2018-11-28T23:13:44.134Z,100513.20
2018-11-28T23:16:14.355Z,100516.38
2018-11-28T23:18:44.420Z,100517.80
2018-11-28T23:21:14.330Z,100510.59
2018-11-28T23:23:44.164Z,100516.39
2018-11-28T23:26:14.670Z,100513.11
2018-11-28T23:28:44.389Z,100503.80
2018-11-28T23:31:14.804Z,100488.55
2018-11-28T23:33:44.578Z,100489.62
2018-11-28T23:36:14.820Z,100486.68
2018-11-28T23:38:44.728Z,100497.00
2018-11-28T23:41:15.353Z,100488.16
2018-11-28T23:43:45.105Z,100490.06
2018-11-28T23:46:15.769Z,100476.41
2018-11-28T23:48:45.700Z,100471.31
2018-11-28T23:51:15.589Z,100464.89
2018-11-28T23:53:45.357Z,100449.72
2018-11-28T23:56:15.149Z,100444.75
2018-11-28T23:58:44.984Z,100443.08
